createdAt,value
2022-12-05T00:01:42.590Z,385.65
2022-12-05T00:04:13.228Z,424.48
2022-12-05T00:06:43.007Z,438.63
2022-12-05T00:09:13.183Z,398.90
2022-12-05T00:11:44.005Z,434.13
2022-12-05T00:14:13.801Z,383.00
2022-12-05T00:16:44.639Z,368.30
2022-12-05T00:19:14.941Z,394.98
2022-12-05T00:21:43.847Z,431.95
2022-12-05T00:24:14.965Z,432.48
2022-12-05T00:26:43.914Z,427.17
2022-12-05T00:29:12.410Z,433.75
2022-12-05T00:31:42.496Z,411.73
2022-12-05T00:34:11.154Z,398.83
2022-12-05T00:36:40.123Z,412.77
2022-12-05T00:39:10.248Z,420.17
2022-12-05T00:41:39.097Z,442.70
2022-12-05T00:44:08.061Z,433.92
2022-12-05T00:46:37.437Z,440.48
2022-12-05T00:49:08.638Z,394.23
2022-12-05T00:51:39.168Z,414.95
2022-12-05T00:54:10.206Z,439.20
2022-12-05T00:56:39.068Z,419.08
2022-12-05T00:59:08.908Z,405.63
2022-12-05T01:01:39.702Z,454.83
2022-12-05T01:04:11.130Z,441.27
2022-12-05T01:06:39.673Z,436.48
2022-12-05T01:09:08.250Z,376.05
2022-12-05T01:11:41.263Z,444.00
2022-12-05T01:14:10.206Z,438.52
2022-12-05T01:16:40.488Z,436.63
2022-12-05T01:19:13.693Z,370.17
2022-12-05T01:21:42.470Z,388.80
2022-12-05T01:24:11.403Z,444.77
2022-12-05T01:26:40.017Z,413.67
2022-12-05T01:29:08.602Z,414.75
2022-12-05T01:31:38.387Z,427.90
2022-12-05T01:34:10.840Z,423.40
2022-12-05T01:36:39.535Z,427.67
2022-12-05T01:39:08.734Z,443.15
2022-12-05T01:41:38.812Z,378.02
2022-12-05T01:44:28.843Z,419.80
2022-12-05T01:46:57.958Z,395.83
2022-12-05T01:49:30.029Z,410.58
2022-12-05T01:52:01.977Z,412.23
2022-12-05T01:54:31.041Z,372.73
2022-12-05T01:57:02.503Z,424.85
2022-12-05T01:59:33.387Z,422.20
2022-12-05T02:02:02.510Z,394.63
2022-12-05T02:04:32.906Z,424.20
2022-12-05T02:07:01.429Z,359.48
2022-12-05T02:09:29.958Z,385.92
2022-12-05T02:12:00.962Z,424.58
2022-12-05T02:14:33.797Z,419.65
2022-12-05T02:17:08.289Z,439.45
2022-12-05T02:20:11.427Z,439.40
2022-12-05T02:23:02.404Z,362.98
2022-12-05T02:26:04.307Z,405.15
2022-12-05T02:28:50.590Z,396.40
2022-12-05T02:31:24.056Z,401.17
2022-12-05T02:33:58.080Z,426.67
2022-12-05T02:36:32.837Z,425.67
2022-12-05T02:39:06.025Z,445.15
2022-12-05T02:41:36.567Z,388.20
2022-12-05T02:44:07.029Z,412.35
2022-12-05T02:46:39.363Z,434.20
2022-12-05T02:49:10.843Z,403.65
2022-12-05T02:51:44.385Z,390.15
2022-12-05T02:54:18.072Z,407.27
2022-12-05T02:56:48.509Z,407.30
2022-12-05T02:59:22.866Z,390.90
2022-12-05T03:01:53.768Z,416.48
2022-12-05T03:04:24.854Z,414.95
2022-12-05T03:06:55.303Z,431.98
2022-12-05T03:09:27.098Z,431.27
2022-12-05T03:11:59.422Z,429.10
2022-12-05T03:14:31.959Z,447.15
2022-12-05T03:17:04.508Z,430.88
2022-12-05T03:19:38.560Z,442.50
2022-12-05T03:22:10.139Z,429.55
2022-12-05T03:24:40.332Z,418.08
2022-12-05T03:27:13.438Z,442.85
2022-12-05T03:29:48.482Z,434.33
2022-12-05T03:32:22.959Z,403.67
2022-12-05T03:34:57.647Z,442.48
2022-12-05T03:40:07.500Z,447.52
2022-12-05T03:42:39.999Z,423.67
2022-12-05T03:45:11.796Z,420.55
2022-12-05T03:47:46.564Z,440.55
2022-12-05T03:50:20.510Z,429.38
2022-12-05T03:53:18.747Z,408.42
2022-12-05T03:55:42.051Z,421.75
2022-12-05T03:58:13.933Z,421.95
2022-12-05T04:00:45.173Z,430.45
2022-12-05T04:03:19.492Z,414.60
2022-12-05T04:05:51.019Z,423.48
2022-12-05T04:08:23.298Z,397.80
2022-12-05T04:10:54.345Z,419.23
2022-12-05T04:13:25.891Z,430.30
2022-12-05T04:16:16.909Z,433.25
2022-12-05T04:18:51.335Z,456.48
2022-12-05T04:21:37.871Z,438.88
2022-12-05T04:24:24.773Z,455.50
2022-12-05T04:27:03.031Z,457.75
2022-12-05T04:29:33.379Z,426.75
2022-12-05T04:32:07.729Z,430.63
2022-12-05T04:34:39.493Z,432.77
2022-12-05T04:37:13.632Z,439.02
2022-12-05T04:39:45.983Z,428.45
2022-12-05T04:42:17.392Z,435.40
2022-12-05T04:44:49.128Z,427.17
2022-12-05T04:47:18.609Z,450.25
2022-12-05T04:49:53.556Z,459.13
2022-12-05T04:52:23.325Z,423.95
2022-12-05T04:54:54.593Z,454.73
2022-12-05T04:57:26.078Z,456.73
2022-12-05T04:59:54.773Z,463.52
2022-12-05T05:02:26.022Z,460.45
2022-12-05T05:04:57.313Z,475.67
2022-12-05T05:07:25.918Z,450.40
2022-12-05T05:09:54.324Z,438.75
2022-12-05T05:12:22.722Z,469.17
2022-12-05T05:14:51.173Z,450.40
2022-12-05T05:17:19.714Z,456.67
2022-12-05T05:19:48.389Z,450.58
2022-12-05T05:22:18.147Z,460.13
2022-12-05T05:24:46.646Z,460.58
2022-12-05T05:27:15.058Z,406.35
2022-12-05T05:29:43.511Z,452.92
2022-12-05T05:32:12.075Z,451.90
2022-12-05T05:34:40.810Z,429.48
2022-12-05T05:37:09.411Z,442.17
2022-12-05T05:39:39.468Z,447.85
2022-12-05T05:42:15.678Z,454.55
2022-12-05T05:44:44.348Z,467.52
2022-12-05T05:47:20.410Z,461.02
2022-12-05T05:49:48.909Z,440.20
2022-12-05T05:52:19.305Z,371.88
2022-12-05T05:54:49.429Z,402.40
2022-12-05T05:57:20.542Z,413.95
2022-12-05T05:59:49.115Z,429.02
2022-12-05T06:02:18.200Z,416.40
2022-12-05T06:04:47.367Z,437.00
2022-12-05T06:07:16.854Z,399.13
2022-12-05T06:09:45.379Z,390.30
2022-12-05T06:12:18.650Z,399.95
2022-12-05T06:14:48.238Z,449.85
2022-12-05T06:17:16.755Z,395.77
2022-12-05T06:19:45.472Z,438.92
2022-12-05T06:22:13.974Z,453.40
2022-12-05T06:24:42.683Z,454.10
2022-12-05T06:27:12.029Z,474.67
2022-12-05T06:29:42.095Z,526.50
2022-12-05T06:32:10.779Z,468.50
2022-12-05T06:34:39.497Z,459.55
2022-12-05T06:37:07.978Z,520.35
2022-12-05T06:39:36.521Z,458.75
2022-12-05T06:42:05.415Z,423.75
2022-12-05T06:44:34.041Z,417.60
2022-12-05T06:47:03.972Z,453.23
2022-12-05T06:49:37.809Z,438.00
2022-12-05T06:52:07.504Z,443.17
2022-12-05T06:54:36.113Z,398.15
2022-12-05T06:57:05.361Z,421.10
2022-12-05T06:59:33.888Z,473.73
2022-12-05T07:02:02.851Z,442.23
2022-12-05T07:04:31.837Z,440.98
2022-12-05T07:07:02.080Z,464.25
2022-12-05T07:09:44.684Z,464.77
2022-12-05T07:12:13.683Z,512.20
2022-12-05T07:14:48.192Z,475.80
2022-12-05T07:17:19.379Z,394.58
2022-12-05T07:19:52.759Z,435.92
2022-12-05T07:22:22.498Z,386.52
2022-12-05T07:24:53.223Z,362.45
2022-12-05T07:27:27.322Z,400.20
2022-12-05T07:29:57.363Z,376.52
2022-12-05T07:32:27.893Z,467.15
2022-12-05T07:34:56.650Z,404.63
2022-12-05T07:37:25.308Z,424.00
2022-12-05T07:39:54.188Z,409.13
2022-12-05T07:42:22.910Z,391.73
2022-12-05T07:44:51.405Z,433.73
2022-12-05T07:47:20.159Z,360.38
2022-12-05T07:49:50.163Z,383.25
2022-12-05T07:52:18.752Z,437.52
2022-12-05T07:54:47.583Z,342.58
2022-12-05T07:57:16.056Z,357.80
2022-12-05T07:59:45.068Z,313.60
2022-12-05T08:02:14.191Z,310.45
2022-12-05T08:04:42.960Z,310.17
2022-12-05T08:07:13.563Z,281.08
2022-12-05T08:09:42.043Z,310.58
2022-12-05T08:12:10.979Z,266.52
2022-12-05T08:14:39.796Z,267.48
2022-12-05T08:17:08.386Z,294.40
2022-12-05T08:19:37.171Z,465.90
2022-12-05T08:22:05.810Z,276.80
2022-12-05T08:24:35.859Z,269.20
2022-12-05T08:27:06.094Z,296.10
2022-12-05T08:29:34.845Z,322.90
2022-12-05T08:32:03.550Z,328.60
2022-12-05T08:34:32.146Z,289.02
2022-12-05T08:37:00.724Z,323.65
2022-12-05T08:39:32.564Z,263.65
2022-12-05T08:42:05.231Z,270.65
2022-12-05T08:44:33.672Z,248.10
2022-12-05T08:47:02.591Z,363.60
2022-12-05T08:49:31.219Z,272.65
2022-12-05T08:51:59.726Z,277.00
2022-12-05T08:54:28.629Z,262.55
2022-12-05T08:56:57.614Z,357.92
2022-12-05T08:59:27.875Z,250.32
2022-12-05T09:01:56.524Z,305.77
2022-12-05T09:04:25.412Z,381.67
2022-12-05T09:06:53.978Z,255.88
2022-12-05T09:09:22.510Z,257.60
2022-12-05T09:11:51.409Z,281.73
2022-12-05T09:14:20.211Z,263.27
2022-12-05T09:16:50.396Z,279.95
2022-12-05T09:19:21.669Z,269.73
2022-12-05T09:21:50.353Z,246.77
2022-12-05T09:24:18.931Z,243.70
2022-12-05T09:26:47.627Z,232.23
2022-12-05T09:29:17.870Z,235.05
2022-12-05T09:31:47.496Z,238.35
2022-12-05T09:34:18.677Z,220.00
2022-12-05T09:36:55.648Z,246.13
2022-12-05T09:39:27.094Z,232.48
2022-12-05T09:42:18.326Z,223.82
2022-12-05T09:45:11.480Z,409.52
2022-12-05T09:47:47.551Z,273.15
2022-12-05T09:50:23.639Z,240.57
2022-12-05T09:53:02.429Z,278.83
2022-12-05T09:55:43.708Z,222.40
2022-12-05T09:58:30.328Z,219.63
2022-12-05T10:01:04.320Z,221.70
2022-12-05T10:03:40.221Z,219.45
2022-12-05T10:06:15.377Z,263.10
2022-12-05T10:09:00.023Z,223.07
2022-12-05T10:11:36.243Z,216.73
2022-12-05T10:14:13.147Z,218.15
2022-12-05T10:16:47.076Z,249.70
2022-12-05T10:19:19.622Z,217.32
2022-12-05T10:21:54.997Z,261.33
2022-12-05T10:24:28.495Z,380.85
2022-12-05T10:26:59.104Z,216.90
2022-12-05T10:29:30.445Z,217.38
2022-12-05T10:32:05.911Z,379.02
2022-12-05T10:34:39.035Z,240.90
2022-12-05T10:37:13.364Z,278.73
2022-12-05T10:39:42.452Z,259.42
2022-12-05T10:42:15.132Z,266.05
2022-12-05T10:44:44.584Z,238.25
2022-12-05T10:47:13.817Z,245.75
2022-12-05T10:49:42.547Z,334.38
2022-12-05T10:52:14.316Z,173.98
2022-12-05T10:54:46.098Z,161.38
2022-12-05T10:57:23.434Z,175.43
2022-12-05T10:59:53.037Z,191.32
2022-12-05T11:02:25.510Z,187.73
2022-12-05T11:04:54.634Z,307.92
2022-12-05T11:07:31.428Z,155.80
2022-12-05T11:10:01.566Z,212.68
2022-12-05T11:12:31.274Z,209.07
2022-12-05T11:15:03.120Z,157.75
2022-12-05T11:20:02.068Z,224.68
2022-12-05T11:22:37.207Z,224.38
2022-12-05T11:25:26.587Z,227.07
2022-12-05T11:28:00.780Z,233.05
2022-12-05T11:30:30.451Z,312.02
2022-12-05T11:33:13.888Z,189.50
2022-12-05T11:35:42.563Z,205.38
2022-12-05T11:38:14.068Z,177.50
2022-12-05T11:40:49.042Z,269.00
2022-12-05T11:43:45.136Z,177.57
2022-12-05T11:46:24.971Z,172.27
2022-12-05T11:49:04.829Z,229.25
2022-12-05T11:51:41.986Z,228.40
2022-12-05T11:55:04.043Z,177.48
2022-12-05T11:57:35.734Z,193.90
2022-12-05T12:00:13.405Z,247.43
2022-12-05T12:03:13.321Z,168.35
2022-12-05T12:05:46.442Z,203.00
2022-12-05T12:08:28.174Z,187.38
2022-12-05T12:11:07.979Z,207.23
2022-12-05T12:13:49.018Z,236.20
2022-12-05T12:16:21.225Z,183.48
2022-12-05T12:19:27.109Z,211.32
2022-12-05T12:22:06.829Z,375.08
2022-12-05T12:24:46.539Z,220.13
2022-12-05T12:27:28.970Z,238.18
2022-12-05T12:30:02.806Z,245.40
2022-12-05T12:32:36.368Z,239.77
2022-12-05T12:35:23.880Z,180.98
2022-12-05T12:38:09.364Z,203.45
2022-12-05T12:40:44.610Z,276.75
2022-12-05T12:43:52.650Z,245.00
2022-12-05T12:46:22.243Z,221.25
2022-12-05T12:49:01.043Z,205.38
2022-12-05T12:51:31.443Z,223.85
2022-12-05T12:54:08.650Z,268.00
2022-12-05T12:56:48.379Z,214.52
2022-12-05T12:59:32.083Z,243.25
2022-12-05T13:02:04.385Z,232.88
2022-12-05T13:04:40.353Z,180.30
2022-12-05T13:07:13.650Z,193.13
2022-12-05T13:09:50.197Z,194.48
2022-12-05T13:12:24.393Z,306.42
2022-12-05T13:14:57.492Z,311.27
2022-12-05T13:17:26.217Z,253.98
2022-12-05T13:19:57.658Z,338.63
2022-12-05T13:22:27.677Z,256.35
2022-12-05T13:24:57.164Z,292.95
2022-12-05T13:27:27.633Z,193.15
2022-12-05T13:30:00.256Z,278.38
2022-12-05T13:32:32.204Z,263.75
2022-12-05T13:35:03.051Z,234.93
2022-12-05T13:37:50.093Z,197.20
2022-12-05T13:40:46.029Z,270.10
2022-12-05T13:43:18.097Z,231.32
2022-12-05T13:46:02.188Z,232.45
2022-12-05T13:48:34.118Z,316.92
2022-12-05T13:51:05.815Z,227.15
2022-12-05T13:53:38.654Z,285.85
2022-12-05T13:56:15.963Z,214.75
2022-12-05T13:58:47.880Z,294.00
2022-12-05T14:01:55.424Z,355.45
2022-12-05T14:04:50.131Z,215.13
2022-12-05T14:07:37.908Z,213.93
2022-12-05T14:10:07.297Z,236.35
2022-12-05T14:12:56.225Z,254.25
2022-12-05T14:15:35.666Z,300.45
2022-12-05T14:18:10.154Z,291.23
2022-12-05T14:20:50.754Z,303.65
2022-12-05T14:23:45.478Z,208.60
2022-12-05T14:26:32.466Z,233.18
2022-12-05T14:29:14.653Z,155.27
2022-12-05T14:31:52.241Z,245.60
2022-12-05T14:34:26.074Z,267.55
2022-12-05T14:36:56.655Z,296.67
2022-12-05T14:39:33.946Z,326.45
2022-12-05T14:42:04.246Z,228.68
2022-12-05T14:44:33.487Z,291.67
2022-12-05T14:47:05.688Z,330.05
2022-12-05T14:49:54.723Z,219.00
2022-12-05T14:52:28.371Z,291.02
2022-12-05T14:55:02.151Z,260.08
2022-12-05T14:57:31.106Z,148.60
2022-12-05T15:00:02.530Z,174.60
2022-12-05T15:02:33.747Z,282.38
2022-12-05T15:05:07.283Z,465.52
2022-12-05T15:07:37.862Z,291.10
2022-12-05T15:10:09.153Z,269.50
2022-12-05T15:12:42.940Z,206.25
2022-12-05T15:15:17.518Z,273.92
2022-12-05T15:20:25.668Z,146.82
2022-12-05T15:22:54.143Z,262.20
2022-12-05T15:25:28.330Z,313.40
2022-12-05T15:27:59.618Z,242.18
2022-12-05T15:30:28.936Z,285.90
2022-12-05T15:32:59.678Z,255.43
2022-12-05T15:35:32.965Z,246.15
2022-12-05T15:38:06.389Z,282.48
2022-12-05T15:40:38.014Z,190.57
2022-12-05T15:43:29.392Z,231.88
2022-12-05T15:46:17.454Z,174.85
2022-12-05T15:48:45.975Z,238.60
2022-12-05T15:51:16.328Z,256.48
2022-12-05T15:53:47.428Z,260.27
2022-12-05T15:56:18.622Z,216.20
2022-12-05T15:58:50.329Z,207.25
2022-12-05T16:01:22.898Z,325.35
2022-12-05T16:03:56.478Z,258.80
2022-12-05T16:06:31.030Z,256.85
2022-12-05T16:09:01.035Z,271.92
2022-12-05T16:11:29.937Z,269.15
2022-12-05T16:14:00.552Z,297.83
2022-12-05T16:16:33.202Z,265.55
2022-12-05T16:19:06.350Z,208.57
2022-12-05T16:21:39.133Z,199.75
2022-12-05T16:24:09.939Z,432.20
2022-12-05T16:26:40.453Z,212.23
2022-12-05T16:29:10.209Z,336.25
2022-12-05T16:31:39.031Z,275.08
2022-12-05T16:34:09.352Z,286.30
2022-12-05T16:36:48.164Z,343.77
2022-12-05T16:39:19.670Z,261.02
2022-12-05T16:41:48.884Z,295.00
2022-12-05T16:44:57.578Z,471.95
2022-12-05T16:47:27.524Z,298.05
2022-12-05T16:49:56.304Z,407.83
2022-12-05T16:52:32.492Z,298.83
2022-12-05T16:55:01.213Z,303.77
2022-12-05T16:57:29.855Z,356.17
2022-12-05T17:00:01.676Z,307.02
2022-12-05T17:02:30.451Z,306.58
2022-12-05T17:04:59.129Z,321.13
2022-12-05T17:07:33.707Z,320.27
2022-12-05T17:10:02.676Z,350.63
2022-12-05T17:12:31.376Z,337.15
2022-12-05T17:15:00.123Z,336.88
2022-12-05T17:17:28.923Z,332.05
2022-12-05T17:19:59.680Z,353.30
2022-12-05T17:22:33.283Z,337.42
2022-12-05T17:25:03.874Z,331.33
2022-12-05T17:27:35.440Z,383.63
2022-12-05T17:30:06.820Z,395.70
2022-12-05T17:32:40.567Z,457.65
2022-12-05T17:35:24.544Z,364.38
2022-12-05T17:37:54.906Z,337.45
2022-12-05T17:40:23.500Z,353.63
2022-12-05T17:42:52.001Z,340.80
2022-12-05T17:45:20.558Z,469.58
2022-12-05T17:47:49.753Z,481.55
2022-12-05T17:50:21.513Z,341.92
2022-12-05T17:52:50.263Z,383.65
2022-12-05T17:55:22.422Z,359.73
2022-12-05T17:57:51.219Z,328.98
2022-12-05T18:00:23.500Z,378.95
2022-12-05T18:03:04.015Z,520.97
2022-12-05T18:05:32.929Z,369.08
2022-12-05T18:08:01.877Z,380.13
2022-12-05T18:10:32.011Z,343.23
2022-12-05T18:13:00.567Z,401.65
2022-12-05T18:15:29.113Z,394.92
2022-12-05T18:17:58.085Z,352.45
2022-12-05T18:20:27.534Z,360.70
2022-12-05T18:22:56.043Z,382.02
2022-12-05T18:25:25.011Z,353.45
2022-12-05T18:27:54.990Z,384.67
2022-12-05T18:30:23.460Z,379.15
2022-12-05T18:32:51.938Z,407.73
2022-12-05T18:35:39.918Z,458.20
2022-12-05T18:38:08.864Z,401.67
2022-12-05T18:40:37.378Z,378.52
2022-12-05T18:43:07.265Z,452.30
2022-12-05T18:45:35.851Z,417.77
2022-12-05T18:48:23.195Z,367.95
2022-12-05T18:50:52.975Z,479.10
2022-12-05T18:53:21.917Z,412.08
2022-12-05T18:56:13.535Z,391.67
2022-12-05T18:58:40.827Z,386.48
2022-12-05T19:01:11.244Z,421.40
2022-12-05T19:03:40.741Z,364.20
2022-12-05T19:06:16.365Z,470.77
2022-12-05T19:08:45.626Z,423.85
2022-12-05T19:11:14.798Z,389.60
2022-12-05T19:13:44.947Z,361.00
2022-12-05T19:16:16.933Z,389.23
2022-12-05T19:18:45.578Z,377.27
2022-12-05T19:21:14.084Z,432.00
2022-12-05T19:23:42.492Z,358.83
2022-12-05T19:26:11.569Z,385.02
2022-12-05T19:28:40.196Z,367.83
2022-12-05T19:31:11.491Z,367.48
2022-12-05T19:33:41.355Z,355.52
2022-12-05T19:36:13.180Z,362.50
2022-12-05T19:38:52.610Z,366.02
2022-12-05T19:41:22.982Z,335.70
2022-12-05T19:43:51.726Z,324.85
2022-12-05T19:46:24.905Z,332.52
2022-12-05T19:48:54.343Z,457.95
2022-12-05T19:51:23.199Z,388.70
2022-12-05T19:53:51.939Z,331.42
2022-12-05T19:56:21.849Z,331.42
2022-12-05T19:58:52.093Z,323.60
2022-12-05T20:01:23.732Z,314.33
2022-12-05T20:03:54.112Z,315.98
2022-12-05T20:06:23.384Z,322.48
2022-12-05T20:08:52.821Z,330.00
2022-12-05T20:11:25.140Z,325.55
2022-12-05T20:13:54.853Z,335.52
2022-12-05T20:16:26.736Z,334.55
2022-12-05T20:18:58.046Z,322.83
2022-12-05T20:21:28.017Z,331.80
2022-12-05T20:23:57.065Z,332.70
2022-12-05T20:26:28.566Z,329.98
2022-12-05T20:28:58.679Z,328.70
2022-12-05T20:31:30.318Z,379.20
2022-12-05T20:33:58.916Z,315.40
2022-12-05T20:36:29.143Z,317.77
2022-12-05T20:39:01.700Z,324.30
2022-12-05T20:41:34.789Z,342.08
2022-12-05T20:44:05.341Z,334.55
2022-12-05T20:46:38.859Z,325.90
2022-12-05T20:49:07.986Z,317.08
2022-12-05T20:51:36.951Z,345.20
2022-12-05T20:54:07.551Z,346.08
2022-12-05T20:56:42.196Z,354.13
2022-12-05T20:59:13.077Z,364.15
2022-12-05T21:01:43.769Z,439.33
2022-12-05T21:04:13.613Z,349.63
2022-12-05T21:06:43.800Z,406.02
2022-12-05T21:09:15.944Z,347.55
2022-12-05T21:11:44.983Z,359.23
2022-12-05T21:14:13.841Z,333.52
2022-12-05T21:16:43.941Z,325.30
2022-12-05T21:19:12.495Z,383.58
2022-12-05T21:21:41.138Z,353.60
2022-12-05T21:24:10.552Z,367.33
2022-12-05T21:26:39.623Z,364.42
2022-12-05T21:29:10.596Z,364.70
2022-12-05T21:31:43.398Z,345.27
2022-12-05T21:34:15.310Z,372.58
2022-12-05T21:36:44.523Z,369.58
2022-12-05T21:39:13.205Z,354.58
2022-12-05T21:41:41.834Z,373.30
2022-12-05T21:44:10.510Z,376.15
2022-12-05T21:46:39.076Z,378.00
2022-12-05T21:49:09.115Z,344.77
2022-12-05T21:51:37.577Z,355.27
2022-12-05T21:54:06.354Z,367.35
2022-12-05T21:56:34.920Z,368.73
2022-12-05T21:59:03.536Z,353.63
2022-12-05T22:01:36.611Z,336.08
2022-12-05T22:04:05.320Z,362.50
2022-12-05T22:06:35.358Z,332.48
2022-12-05T22:09:03.920Z,354.75
2022-12-05T22:11:32.800Z,387.85
2022-12-05T22:14:01.248Z,390.80
2022-12-05T22:16:33.418Z,370.02
2022-12-05T22:19:02.448Z,346.23
2022-12-05T22:21:33.800Z,379.05
2022-12-05T22:24:03.528Z,374.90
2022-12-05T22:26:32.046Z,400.13
2022-12-05T22:29:00.555Z,369.73
2022-12-05T22:31:29.502Z,365.27
2022-12-05T22:33:57.967Z,356.45
2022-12-05T22:36:26.597Z,382.52
2022-12-05T22:38:55.164Z,361.52
2022-12-05T22:41:26.513Z,341.48
2022-12-05T22:43:57.591Z,361.35
2022-12-05T22:46:27.651Z,388.77
2022-12-05T22:48:56.515Z,387.77
2022-12-05T22:51:27.402Z,340.70
2022-12-05T22:53:56.359Z,350.10
2022-12-05T22:56:27.965Z,332.98
2022-12-05T22:58:57.033Z,384.20
2022-12-05T23:01:26.776Z,368.17
2022-12-05T23:03:57.104Z,352.15
2022-12-05T23:06:25.977Z,362.02
2022-12-05T23:08:54.692Z,341.40
2022-12-05T23:11:26.069Z,355.25
2022-12-05T23:14:01.324Z,361.20
2022-12-05T23:16:32.410Z,353.38
2022-12-05T23:19:03.002Z,361.92
2022-12-05T23:21:32.912Z,365.75
2022-12-05T23:24:03.039Z,369.77
2022-12-05T23:26:34.801Z,339.60
2022-12-05T23:29:03.383Z,363.48
2022-12-05T23:31:31.967Z,326.23
2022-12-05T23:34:03.443Z,370.20
2022-12-05T23:36:32.554Z,378.50
2022-12-05T23:39:01.242Z,390.38
2022-12-05T23:41:29.776Z,390.05
2022-12-05T23:43:59.744Z,370.83
2022-12-05T23:46:29.532Z,333.52
2022-12-05T23:48:58.325Z,384.52
2022-12-05T23:51:28.445Z,386.75
2022-12-05T23:53:58.624Z,352.08
2022-12-05T23:56:28.473Z,358.65
2022-12-05T23:58:59.320Z,391.60
